Time;durP1;ratioP1;P1;durP2;ratioP2;P2;SDS_P1;SDS_P2;PMS_P1;PMS_P2;Temp;Humidity;BMP_temperature;BMP_pressure;BME280_temperature;BME280_humidity;BME280_pressure;Samples;Min_cycle;Max_cycle;Signal;HPM_P1;HPM_P2
2022/12/06 00:00:24;;;;;;;;;;;;;;;3.94;100.00;102052.53;5075144;28;19927;-63
2022/12/06 00:02:49;;;;;;;;;;;;;;;3.89;100.00;102052.44;5074788;28;19917;-62
2022/12/06 00:05:14;;;;;;;;;;;;;;;3.82;100.00;102053.19;5074834;28;20003;-62
2022/12/06 00:07:40;;;;;;;;;;;;;;;3.76;100.00;102054.88;5074891;28;19923;-63
2022/12/06 00:10:05;;;;;;;;;;;;;;;3.68;100.00;102049.53;5057019;28;20011;-62
2022/12/06 00:12:31;;;;;;;;;;;;;;;3.64;100.00;102049.47;5056587;28;20274;-63
2022/12/06 00:14:56;;;;;;;;;;;;;;;3.65;100.00;102054.69;5074638;28;20286;-62
2022/12/06 00:17:21;;;;;;;;;;;;;;;3.66;100.00;102050.38;5074652;28;19916;-62
2022/12/06 00:19:46;;;;;;;;;;;;;;;3.69;100.00;102053.91;5075112;28;19920;-63
2022/12/06 00:22:12;;;;;;;;;;;;;;;3.69;100.00;102047.81;5056752;28;19917;-63
2022/12/06 00:24:37;;;;;;;;;;;;;;;3.71;100.00;102052.19;5074654;28;19959;-62
2022/12/06 00:27:02;;;;;;;;;;;;;;;3.69;100.00;102053.00;5075230;28;19923;-62
2022/12/06 00:29:28;;;;;;;;;;;;;;;3.67;100.00;102045.19;5074231;28;19934;-63
2022/12/06 00:31:53;;;;;;;;;;;;;;;3.66;100.00;102048.63;5074228;28;19938;-63
2022/12/06 00:34:18;;;;;;;;;;;;;;;3.63;100.00;102046.00;5074496;28;19923;-63
2022/12/06 00:36:45;;;;;;;;;;;;;;;3.61;100.00;102042.50;5056638;28;19928;-63
2022/12/06 00:39:11;;;;;;;;;;;;;;;3.58;100.00;102038.97;5074264;28;20299;-63
2022/12/06 00:41:37;;;;;;;;;;;;;;;3.56;100.00;102048.50;5074223;28;19916;-63
2022/12/06 00:44:02;;;;;;;;;;;;;;;3.57;100.00;102048.50;5074323;28;19912;-63
2022/12/06 00:46:28;;;;;;;;;;;;;;;3.57;100.00;102042.41;5056022;28;19995;-62
2022/12/06 00:48:55;;;;;;;;;;;;;;;3.58;100.00;102045.06;5073768;28;19923;-62
2022/12/06 00:51:21;;;;;;;;;;;;;;;3.59;100.00;102041.56;5056221;28;19935;-62
2022/12/06 00:53:46;;;;;;;;;;;;;;;3.58;100.00;102046.78;5073965;28;19908;-62
2022/12/06 00:56:12;;;;;;;;;;;;;;;3.58;100.00;102042.44;5074033;28;19923;-62
2022/12/06 00:58:37;;;;;;;;;;;;;;;3.59;100.00;102044.19;5055781;28;19919;-62
2022/12/06 01:01:06;;;;;;;;;;;;;;;3.65;100.00;102043.44;5073895;28;20011;-62
2022/12/06 01:03:31;;;;;;;;;;;;;;;3.66;100.00;102040.81;5055867;28;20463;-62
2022/12/06 01:05:57;;;;;;;;;;;;;;;3.73;100.00;102037.47;5073718;28;19917;-62
2022/12/06 01:08:22;;;;;;;;;;;;;;;3.85;100.00;102036.78;5073769;28;19940;-62
2022/12/06 01:10:53;;;;;;;;;;;;;;;3.94;100.00;102042.13;5073887;28;20371;-62
2022/12/06 01:13:18;;;;;;;;;;;;;;;4.05;100.00;102039.63;5073555;28;19977;-62
2022/12/06 01:15:44;;;;;;;;;;;;;;;4.13;100.00;102033.66;5073645;28;19916;-62
2022/12/06 01:18:09;;;;;;;;;;;;;;;4.18;100.00;102015.47;5055793;28;20436;-62
2022/12/06 01:20:34;;;;;;;;;;;;;;;4.22;100.00;102022.47;5073623;28;19920;-62
2022/12/06 01:22:59;;;;;;;;;;;;;;;4.23;100.00;102025.09;5055754;28;19967;-62
2022/12/06 01:25:24;;;;;;;;;;;;;;;4.23;100.00;102017.28;5073336;28;19916;-62
2022/12/06 01:27:50;;;;;;;;;;;;;;;4.26;100.00;102019.06;5073370;28;19999;-61
2022/12/06 01:30:15;;;;;;;;;;;;;;;4.27;100.00;102019.06;5073352;28;20030;-62
2022/12/06 01:32:40;;;;;;;;;;;;;;;4.30;100.00;102031.25;5073346;28;20328;-62
2022/12/06 01:35:05;;;;;;;;;;;;;;;4.31;100.00;102026.09;5073444;28;19986;-62
2022/12/06 01:37:31;;;;;;;;;;;;;;;4.37;100.00;102026.16;5073100;28;19972;-62
2022/12/06 01:39:56;;;;;;;;;;;;;;;4.40;100.00;102017.50;5072952;28;19924;-62
2022/12/06 01:42:21;;;;;;;;;;;;;;;4.43;100.00;102027.97;5072969;28;19916;-62
2022/12/06 01:44:49;;;;;;;;;;;;;;;4.48;100.00;102023.66;5072691;28;19974;-62
2022/12/06 01:47:18;;;;;;;;;;;;;;;4.48;100.00;102028.88;5073018;28;20348;-62
2022/12/06 01:49:44;;;;;;;;;;;;;;;4.49;100.00;102022.81;5072859;28;19912;-62
2022/12/06 01:52:10;;;;;;;;;;;;;;;4.52;100.00;102033.28;5054274;28;20284;-61
2022/12/06 01:54:35;;;;;;;;;;;;;;;4.53;100.00;102022.84;5054609;28;19917;-62
2022/12/06 01:57:00;;;;;;;;;;;;;;;4.54;100.00;102019.41;5054814;28;19924;-61
2022/12/06 01:59:25;;;;;;;;;;;;;;;4.57;100.00;102021.16;5072408;28;19912;-62
2022/12/06 02:01:51;;;;;;;;;;;;;;;4.60;100.00;102028.13;5054646;28;19994;-61
2022/12/06 02:04:16;;;;;;;;;;;;;;;4.61;100.00;102016.84;5072610;28;19920;-62
2022/12/06 02:06:42;;;;;;;;;;;;;;;4.63;100.00;102020.34;5054709;28;19913;-62
2022/12/06 02:09:08;;;;;;;;;;;;;;;4.64;100.00;102022.09;5054865;28;19912;-62
2022/12/06 02:11:33;;;;;;;;;;;;;;;4.65;100.00;102014.28;5054216;28;19912;-62
2022/12/06 02:13:58;;;;;;;;;;;;;;;4.67;100.00;102024.75;5054044;28;19916;-62
2022/12/06 02:16:39;;;;;;;;;;;;;;;4.68;100.00;102021.25;5054302;28;20005;-62
2022/12/06 02:19:13;;;;;;;;;;;;;;;4.70;100.00;102020.41;5072685;28;19912;-63
2022/12/06 02:21:49;;;;;;;;;;;;;;;4.70;100.00;102011.75;5054623;28;19920;-62
2022/12/06 02:24:33;;;;;;;;;;;;;;;4.69;100.00;102013.47;5054411;28;19924;-63
2022/12/06 02:27:14;;;;;;;;;;;;;;;4.69;100.00;102015.19;5054972;28;19912;-62
2022/12/06 02:29:42;;;;;;;;;;;;;;;4.72;100.00;102015.22;5072148;28;19963;-62
2022/12/06 02:32:28;;;;;;;;;;;;;;;4.73;100.00;102015.22;5072063;28;19917;-62
2022/12/06 02:34:54;;;;;;;;;;;;;;;4.73;100.00;102015.22;5054470;28;19932;-62
2022/12/06 02:37:25;;;;;;;;;;;;;;;4.75;100.00;102015.25;5071993;28;19916;-62
2022/12/06 02:40:10;;;;;;;;;;;;;;;4.76;100.00;102019.63;5054439;28;19912;-62
2022/12/06 02:42:38;;;;;;;;;;;;;;;4.77;100.00;102018.75;5071586;28;20420;-63
2022/12/06 02:45:07;;;;;;;;;;;;;;;4.77;100.00;102013.53;5054138;28;19912;-62
2022/12/06 02:47:33;;;;;;;;;;;;;;;4.76;100.00;102010.03;5054041;28;20019;-62
2022/12/06 02:49:58;;;;;;;;;;;;;;;4.77;100.00;102010.94;5054039;28;20011;-62
2022/12/06 02:52:25;;;;;;;;;;;;;;;4.77;100.00;102010.94;5053993;28;19912;-63
2022/12/06 02:54:50;;;;;;;;;;;;;;;4.78;100.00;102010.06;5054084;28;19912;-62
2022/12/06 02:57:16;;;;;;;;;;;;;;;4.76;100.00;102007.44;5071941;28;19924;-62
2022/12/06 02:59:51;;;;;;;;;;;;;;;4.75;100.00;102015.25;5071717;28;19971;-62
2022/12/06 03:02:16;;;;;;;;;;;;;;;4.74;100.00;102011.78;5054159;28;19913;-62
2022/12/06 03:04:47;;;;;;;;;;;;;;;4.76;100.00;102009.19;5054175;28;19923;-62
2022/12/06 03:07:22;;;;;;;;;;;;;;;4.78;100.00;102010.06;5054572;28;20268;-62
2022/12/06 03:09:50;;;;;;;;;;;;;;;4.76;100.00;102006.59;5071865;28;20005;-62
2022/12/06 03:12:33;;;;;;;;;;;;;;;4.74;100.00;102011.78;5071912;28;19955;-62
2022/12/06 03:14:58;;;;;;;;;;;;;;;4.74;100.00;102009.16;5071949;28;20351;-62
2022/12/06 03:17:27;;;;;;;;;;;;;;;4.74;100.00;102016.13;5053704;28;19915;-62
2022/12/06 03:19:54;;;;;;;;;;;;;;;4.75;100.00;102003.09;5053842;28;19969;-62
2022/12/06 03:22:21;;;;;;;;;;;;;;;4.72;100.00;102010.91;5072434;28;20363;-62
2022/12/06 03:24:46;;;;;;;;;;;;;;;4.71;100.00;102008.25;5075656;28;19928;-62
2022/12/06 03:27:13;;;;;;;;;;;;;;;4.70;100.00;102014.34;5075428;28;19985;-62
2022/12/06 03:29:39;;;;;;;;;;;;;;;4.70;100.00;102007.38;5057638;28;19916;-62
2022/12/06 03:32:05;;;;;;;;;;;;;;;4.69;100.00;102004.78;5075594;28;19962;-62
2022/12/06 03:34:40;;;;;;;;;;;;;;;4.66;100.00;102010.84;5057303;28;19916;-62
2022/12/06 03:37:06;;;;;;;;;;;;;;;4.62;100.00;102019.47;5058972;28;19917;-62
2022/12/06 03:39:36;;;;;;;;;;;;;;;4.58;100.00;102009.00;5074775;28;19917;-62
2022/12/06 03:42:01;;;;;;;;;;;;;;;4.50;100.00;102012.38;5057560;28;19912;-61
2022/12/06 03:44:27;;;;;;;;;;;;;;;4.41;100.00;102014.00;5056924;28;20385;-62
2022/12/06 03:46:53;;;;;;;;;;;;;;;4.31;100.00;102013.06;5075269;28;20022;-61
2022/12/06 03:49:30;;;;;;;;;;;;;;;4.23;100.00;102009.47;5057322;28;19913;-61
2022/12/06 03:51:55;;;;;;;;;;;;;;;4.13;100.00;102007.63;5058519;28;19958;-61
2022/12/06 03:54:20;;;;;;;;;;;;;;;4.01;100.00;102007.44;5074607;28;19916;-61
2022/12/06 03:56:45;;;;;;;;;;;;;;;3.88;100.00;102005.56;5074997;28;19912;-62
2022/12/06 03:59:11;;;;;;;;;;;;;;;3.73;100.00;102003.63;5075058;28;20290;-62
2022/12/06 04:01:37;;;;;;;;;;;;;;;3.62;100.00;102012.97;5057013;28;19912;-62
2022/12/06 04:04:02;;;;;;;;;;;;;;;3.51;100.00;102018.88;5056865;28;20026;-64
2022/12/06 04:06:27;;;;;;;;;;;;;;;3.36;100.00;102011.72;5074849;28;19963;-69
2022/12/06 04:09:50;;;;;;;;;;;;;;;3.24;100.00;102020.22;5074371;28;19912;-63
2022/12/06 04:11:38;;;;;;;;;;;;;;;3.14;100.00;102025.25;5074709;28;20294;-63
2022/12/06 04:14:03;;;;;;;;;;;;;;;3.08;100.00;102015.63;5074849;28;19920;-63
2022/12/06 04:19:32;;;;;;;;;;;;;;;3.10;100.00;102023.44;5013211;28;19971;-63
2022/12/06 04:24:41;;;;;;;;;;;;;;;3.05;100.00;102020.75;5048367;28;20007;-64
2022/12/06 04:40:45;;;;;;;;;;;;;;;2.64;100.00;101985.34;5059516;28;20010;-61
2022/12/06 04:45:55;;;;;;;;;;;;;;;2.75;100.00;102008.09;5059173;28;19939;-62
2022/12/06 04:48:20;;;;;;;;;;;;;;;2.77;100.00;102009.00;5073772;28;19916;-62
2022/12/06 04:50:46;;;;;;;;;;;;;;;2.75;100.00;102012.41;5074073;28;19919;-62
2022/12/06 04:53:11;;;;;;;;;;;;;;;2.73;100.00;102009.81;5056511;28;19916;-63
2022/12/06 04:55:36;;;;;;;;;;;;;;;2.68;100.00;102006.25;5056301;28;19965;-63
2022/12/06 04:58:02;;;;;;;;;;;;;;;2.65;100.00;102005.31;5074116;28;20264;-63
2022/12/06 05:00:27;;;;;;;;;;;;;;;2.63;100.00;102002.66;5073730;28;20378;-63
2022/12/06 05:02:52;;;;;;;;;;;;;;;2.60;100.00;102002.63;5073346;28;19916;-63
2022/12/06 05:05:17;;;;;;;;;;;;;;;2.60;100.00;101992.22;5073679;28;19921;-63
2022/12/06 05:07:42;;;;;;;;;;;;;;;2.62;100.00;101994.88;5073946;28;19916;-64
2022/12/06 05:10:08;;;;;;;;;;;;;;;2.63;100.00;101988.78;5073871;28;19916;-64
2022/12/06 05:12:34;;;;;;;;;;;;;;;2.63;100.00;101991.41;5073688;28;20336;-64
2022/12/06 05:14:59;;;;;;;;;;;;;;;2.64;100.00;101988.84;5073175;28;19916;-64
2022/12/06 05:17:24;;;;;;;;;;;;;;;2.65;100.00;101994.91;5073552;28;20023;-63
2022/12/06 05:19:49;;;;;;;;;;;;;;;2.62;100.00;101998.34;5073829;28;20275;-63
2022/12/06 05:22:15;;;;;;;;;;;;;;;2.59;100.00;101994.81;5073471;28;19917;-62
2022/12/06 05:24:40;;;;;;;;;;;;;;;2.54;100.00;101988.66;5072945;28;19926;-62
2022/12/06 05:27:05;;;;;;;;;;;;;;;2.51;100.00;101996.41;5073203;28;19917;-63
2022/12/06 05:29:30;;;;;;;;;;;;;;;2.51;100.00;101994.66;5073367;28;19920;-63
2022/12/06 05:31:55;;;;;;;;;;;;;;;2.53;100.00;101995.56;5072938;28;20298;-63
2022/12/06 05:34:21;;;;;;;;;;;;;;;2.57;100.00;101991.31;5073005;28;19920;-63
2022/12/06 05:36:46;;;;;;;;;;;;;;;2.60;100.00;101992.22;5051684;28;19928;-63
2022/12/06 05:39:11;;;;;;;;;;;;;;;2.64;100.00;101987.97;5053129;28;19924;-62
2022/12/06 05:41:36;;;;;;;;;;;;;;;2.67;100.00;101994.09;5052892;28;19924;-63
2022/12/06 05:44:02;;;;;;;;;;;;;;;2.66;100.00;101994.94;5052995;28;19928;-63
2022/12/06 05:46:27;;;;;;;;;;;;;;;2.67;100.00;101994.09;5039309;28;19921;-63
2022/12/06 05:48:52;;;;;;;;;;;;;;;2.65;100.00;101984.53;5032971;28;20070;-63
2022/12/06 05:51:17;;;;;;;;;;;;;;;2.61;100.00;101986.19;5033089;28;19952;-63
2022/12/06 05:53:42;;;;;;;;;;;;;;;2.53;100.00;101990.38;5032859;28;19971;-63
2022/12/06 05:56:09;;;;;;;;;;;;;;;2.46;100.00;101995.41;5043669;28;19955;-63
2022/12/06 05:58:34;;;;;;;;;;;;;;;2.43;100.00;102004.03;5053609;28;19942;-63
2022/12/06 06:01:00;;;;;;;;;;;;;;;2.40;100.00;102006.56;5051692;28;20403;-64
2022/12/06 06:03:25;;;;;;;;;;;;;;;2.39;100.00;102004.84;5052982;28;20338;-63
2022/12/06 06:05:53;;;;;;;;;;;;;;;2.39;100.00;102002.25;5052870;28;20008;-64
2022/12/06 06:08:18;;;;;;;;;;;;;;;2.41;100.00;102004.84;5051231;28;19995;-63
2022/12/06 06:10:43;;;;;;;;;;;;;;;2.43;100.00;102005.75;5022878;28;20371;-64
2022/12/06 06:13:08;;;;;;;;;;;;;;;2.42;100.00;102002.28;5052645;28;19919;-63
2022/12/06 06:15:34;;;;;;;;;;;;;;;2.43;100.00;102001.44;5051198;28;19916;-64
2022/12/06 06:17:59;;;;;;;;;;;;;;;2.42;100.00;101996.22;5051077;28;20374;-64
2022/12/06 06:20:24;;;;;;;;;;;;;;;2.39;100.00;102003.97;5052466;28;20402;-63
2022/12/06 06:22:49;;;;;;;;;;;;;;;2.32;100.00;102004.66;5052144;28;19921;-63
2022/12/06 06:25:15;;;;;;;;;;;;;;;2.23;100.00;102000.16;5052349;28;19924;-63
2022/12/06 06:27:40;;;;;;;;;;;;;;;2.13;100.00;101993.06;5052151;28;19923;-63
2022/12/06 06:30:07;;;;;;;;;;;;;;;2.05;100.00;101997.19;5053058;28;19920;-63
2022/12/06 06:32:32;;;;;;;;;;;;;;;1.97;100.00;101991.84;5051998;28;19921;-63
2022/12/06 06:34:57;;;;;;;;;;;;;;;1.86;100.00;101995.06;5051193;28;20011;-62
2022/12/06 06:37:22;;;;;;;;;;;;;;;1.74;100.00;101997.41;5063096;28;20404;-63
2022/12/06 06:39:48;;;;;;;;;;;;;;;1.63;100.00;101987.63;5071783;28;19920;-62
2022/12/06 06:42:13;;;;;;;;;;;;;;;1.51;100.00;101987.41;5072368;28;19913;-62
2022/12/06 06:44:38;;;;;;;;;;;;;;;1.42;100.00;101991.50;5071961;28;19924;-62
2022/12/06 06:47:04;;;;;;;;;;;;;;;1.32;100.00;101987.78;5072229;28;20006;-62
2022/12/06 06:49:30;;;;;;;;;;;;;;;1.26;100.00;101992.84;5072310;28;20336;-62
2022/12/06 06:51:55;;;;;;;;;;;;;;;1.23;100.00;101992.75;5054119;28;19981;-63
2022/12/06 06:54:20;;;;;;;;;;;;;;;1.25;100.00;101992.81;5053829;28;19912;-62
2022/12/06 06:56:45;;;;;;;;;;;;;;;1.24;100.00;101986.75;5073215;28;20306;-62
2022/12/06 06:59:10;;;;;;;;;;;;;;;1.22;100.00;101974.59;5076025;28;20382;-62
2022/12/06 07:01:37;;;;;;;;;;;;;;;1.16;100.00;101977.91;5075667;28;19916;-64
2022/12/06 07:04:02;;;;;;;;;;;;;;;1.10;100.00;101970.00;5076297;28;19916;-63
2022/12/06 07:06:27;;;;;;;;;;;;;;;1.07;100.00;101975.09;5071382;28;19921;-63
2022/12/06 07:08:52;;;;;;;;;;;;;;;1.00;100.00;101975.78;5075056;28;19923;-61
2022/12/06 07:11:18;;;;;;;;;;;;;;;0.93;100.00;101985.16;5074089;28;20417;-61
2022/12/06 07:13:43;;;;;;;;;;;;;;;0.87;100.00;101981.50;5056522;28;19963;-59
2022/12/06 07:16:13;;;;;;;;;;;;;;;0.81;100.00;101979.66;5074839;28;20272;-62
2022/12/06 07:18:38;;;;;;;;;;;;;;;0.75;100.00;101982.09;5040232;28;20260;-62
2022/12/06 07:21:04;;;;;;;;;;;;;;;0.70;100.00;101988.00;5076246;28;19977;-61
2022/12/06 07:23:30;;;;;;;;;;;;;;;0.65;100.00;101979.19;5057093;28;19916;-59
2022/12/06 07:26:02;;;;;;;;;;;;;;;0.61;100.00;101977.38;5057874;28;19962;-61
2022/12/06 07:28:27;;;;;;;;;;;;;;;0.55;100.00;101973.78;5074750;28;19913;-60
2022/12/06 07:30:52;;;;;;;;;;;;;;;0.53;100.00;101984.94;5075299;28;19923;-59
2022/12/06 07:33:17;;;;;;;;;;;;;;;0.50;100.00;101988.31;5076262;28;19912;-59
2022/12/06 07:35:42;;;;;;;;;;;;;;;0.46;100.00;101973.56;5075712;28;19916;-59
2022/12/06 07:38:08;;;;;;;;;;;;;;;0.44;100.00;101990.75;5053467;28;19920;-60
2022/12/06 07:40:33;;;;;;;;;;;;;;;0.41;100.00;101988.06;5053839;28;19923;-61
2022/12/06 07:45:42;;;;;;;;;;;;;;;0.38;100.00;102000.09;5055335;28;19924;-61
2022/12/06 07:48:07;;;;;;;;;;;;;;;0.36;100.00;101992.25;5055614;28;19912;-60
2022/12/06 07:50:32;;;;;;;;;;;;;;;0.34;100.00;101991.34;5052934;28;19923;-60
2022/12/06 07:52:57;;;;;;;;;;;;;;;0.32;100.00;101987.81;5054165;28;19921;-60
2022/12/06 07:55:22;;;;;;;;;;;;;;;0.33;100.00;102004.25;5054451;28;19924;-60
2022/12/06 07:57:48;;;;;;;;;;;;;;;0.32;100.00;101998.19;5054907;28;19913;-59
2022/12/06 08:00:14;;;;;;;;;;;;;;;0.32;100.00;101995.59;5054817;28;20375;-60
2022/12/06 08:02:39;;;;;;;;;;;;;;;0.32;100.00;102000.78;5053863;28;19913;-60
2022/12/06 08:05:05;;;;;;;;;;;;;;;0.34;100.00;102012.06;5054851;28;19971;-62
2022/12/06 08:07:31;;;;;;;;;;;;;;;0.38;100.00;102006.13;5053633;28;19959;-62
2022/12/06 08:09:56;;;;;;;;;;;;;;;0.42;100.00;102005.38;5053635;28;19921;-62
2022/12/06 08:12:21;;;;;;;;;;;;;;;0.49;100.00;102011.63;5053872;28;19954;-62
2022/12/06 08:14:47;;;;;;;;;;;;;;;0.60;100.00;101997.22;5053522;28;20368;-61
2022/12/06 08:17:12;;;;;;;;;;;;;;;0.70;100.00;102001.78;5073963;28;19955;-60
2022/12/06 08:19:37;;;;;;;;;;;;;;;0.82;100.00;102004.72;5074654;28;19924;-61
2022/12/06 08:22:02;;;;;;;;;;;;;;;0.93;100.00;102007.59;5075567;28;19916;-63
2022/12/06 08:24:27;;;;;;;;;;;;;;;1.01;100.00;102003.47;5074475;28;19916;-62
2022/12/06 08:26:53;;;;;;;;;;;;;;;1.03;100.00;102000.06;5072668;28;19919;-62
2022/12/06 08:29:18;;;;;;;;;;;;;;;1.07;100.00;101998.44;5074249;28;19939;-62
2022/12/06 08:31:44;;;;;;;;;;;;;;;1.08;100.00;102008.81;5074506;28;19923;-63
2022/12/06 08:34:10;;;;;;;;;;;;;;;1.09;100.00;102013.19;5071647;28;20275;-63
2022/12/06 08:36:36;;;;;;;;;;;;;;;1.14;100.00;102005.50;5074068;28;19943;-60
2022/12/06 08:39:01;;;;;;;;;;;;;;;1.24;100.00;102004.03;5093556;28;19922;-62
2022/12/06 08:44:11;;;;;;;;;;;;;;;1.67;100.00;102002.44;5093636;28;19927;-62
2022/12/06 08:46:36;;;;;;;;;;;;;;;1.86;100.00;102003.75;5093413;28;19912;-62
2022/12/06 08:49:02;;;;;;;;;;;;;;;1.99;100.00;102007.44;5093273;28;19916;-61
2022/12/06 08:51:27;;;;;;;;;;;;;;;2.08;100.00;101992.94;5092858;28;19920;-61
2022/12/06 08:53:54;;;;;;;;;;;;;;;2.17;100.00;101993.13;5093244;28;19920;-60
2022/12/06 08:56:19;;;;;;;;;;;;;;;2.27;100.00;102009.78;5075253;28;19951;-61
2022/12/06 08:58:44;;;;;;;;;;;;;;;2.37;100.00;102001.31;5075431;28;19981;-61
2022/12/06 09:01:13;;;;;;;;;;;;;;;2.53;100.00;101999.88;5093481;28;19916;-62
2022/12/06 09:03:38;;;;;;;;;;;;;;;2.76;100.00;101999.47;5075078;28;20370;-61
2022/12/06 09:06:04;;;;;;;;;;;;;;;3.02;100.00;102002.50;5093109;28;20201;-62
2022/12/06 09:08:29;;;;;;;;;;;;;;;3.23;100.00;101999.38;5092753;28;20289;-62
2022/12/06 09:10:54;;;;;;;;;;;;;;;3.41;100.00;101997.91;5092662;28;19924;-62
2022/12/06 09:13:19;;;;;;;;;;;;;;;3.57;100.00;102001.63;5092900;28;19916;-60
2022/12/06 09:15:44;;;;;;;;;;;;;;;3.68;100.00;101996.56;5093014;28;20282;-63
2022/12/06 09:18:10;;;;;;;;;;;;;;;3.79;100.00;101995.91;5092893;28;19912;-60
2022/12/06 09:20:38;;;;;;;;;;;;;;;3.95;100.00;101986.53;5091605;28;19916;-61
2022/12/06 09:23:03;;;;;;;;;;;;;;;4.15;100.00;101997.19;5092842;28;19922;-62
2022/12/06 09:25:28;;;;;;;;;;;;;;;4.26;100.00;101993.84;5092370;28;20313;-61
2022/12/06 09:27:53;;;;;;;;;;;;;;;4.37;100.00;101994.88;5092830;28;19920;-61
2022/12/06 09:30:19;;;;;;;;;;;;;;;4.49;100.00;101994.13;5074457;28;19927;-62
2022/12/06 09:32:44;;;;;;;;;;;;;;;4.54;100.00;101984.63;5074710;28;20286;-59
2022/12/06 09:35:09;;;;;;;;;;;;;;;4.65;100.00;101990.81;5092478;28;19920;-62
2022/12/06 09:37:34;;;;;;;;;;;;;;;4.74;100.00;101984.81;5092093;28;19920;-60
2022/12/06 09:40:00;;;;;;;;;;;;;;;4.83;100.00;101988.38;5092103;28;20289;-61
2022/12/06 09:42:44;;;;;;;;;;;;;;;4.93;100.00;101995.44;5074393;28;20003;-60
2022/12/06 09:45:28;;;;;;;;;;;;;;;5.01;100.00;101996.38;5074092;28;19951;-60
2022/12/06 09:47:58;;;;;;;;;;;;;;;5.08;100.00;101992.94;5092112;28;20194;-60
2022/12/06 09:50:29;;;;;;;;;;;;;;;5.13;100.00;102003.44;5074064;28;19912;-62
2022/12/06 09:53:14;;;;;;;;;;;;;;;5.19;100.00;102007.84;5092655;28;19912;-61
2022/12/06 09:55:46;;;;;;;;;;;;;;;5.17;100.00;101997.38;5091653;28;19912;-62
2022/12/06 09:58:11;;;;;;;;;;;;;;;5.24;100.00;102000.91;5091975;28;19918;-62
2022/12/06 10:00:40;;;;;;;;;;;;;;;5.28;100.00;102002.69;5092263;28;19924;-60
2022/12/06 10:03:09;;;;;;;;;;;;;;;5.39;100.00;101987.97;5073678;28;19915;-62
2022/12/06 10:05:54;;;;;;;;;;;;;;;5.47;100.00;101996.72;5091913;28;20422;-62
2022/12/06 10:08:28;;;;;;;;;;;;;;;5.53;100.00;102002.88;5091790;28;20001;-60
2022/12/06 10:10:57;;;;;;;;;;;;;;;5.55;100.00;101992.44;5091918;28;19912;-61
2022/12/06 10:13:41;;;;;;;;;;;;;;;5.63;100.00;102004.66;5037997;28;19912;-61
2022/12/06 10:16:21;;;;;;;;;;;;;;;5.72;100.00;102005.63;5071428;28;20391;-61
2022/12/06 10:19:07;;;;;;;;;;;;;;;5.82;100.00;101999.56;5063421;28;20340;-61
2022/12/06 10:21:44;;;;;;;;;;;;;;;6.01;100.00;102006.69;5051135;28;20315;-61
2022/12/06 10:24:28;;;;;;;;;;;;;;;6.07;100.00;102009.31;5051028;28;19970;-61
2022/12/06 10:26:54;;;;;;;;;;;;;;;6.06;100.00;102013.66;5051305;28;19922;-61
2022/12/06 10:29:20;;;;;;;;;;;;;;;6.12;100.00;102005.84;5049653;28;19913;-60
2022/12/06 10:31:45;;;;;;;;;;;;;;;6.05;100.00;102000.56;5049449;28;19912;-61
2022/12/06 10:34:13;;;;;;;;;;;;;;;6.10;100.00;102011.94;5051026;28;19920;-60
2022/12/06 10:37:00;;;;;;;;;;;;;;;6.25;100.00;102004.13;5049693;28;19924;-61
2022/12/06 10:39:40;;;;;;;;;;;;;;;6.50;100.00;102006.00;5049323;28;19917;-61
2022/12/06 10:42:09;;;;;;;;;;;;;;;6.64;100.00;102004.28;5058177;28;19916;-61
2022/12/06 10:44:55;;;;;;;;;;;;;;;6.75;100.00;102006.91;5052296;28;20338;-60
2022/12/06 10:47:40;;;;;;;;;;;;;;;6.62;100.00;102003.41;5052804;28;20379;-60
2022/12/06 10:50:25;;;;;;;;;;;;;;;6.41;100.00;102005.09;5070340;28;20409;-60
2022/12/06 10:53:02;;;;;;;;;;;;;;;6.19;100.00;101998.88;5052179;28;19912;-61
2022/12/06 10:55:31;;;;;;;;;;;;;;;5.94;100.00;101997.03;5071152;28;19908;-60
2022/12/06 10:58:00;;;;;;;;;;;;;;;5.77;100.00;101994.31;5053689;28;19920;-61
2022/12/06 11:00:26;;;;;;;;;;;;;;;5.69;100.00;102001.25;5071010;28;20137;-61
2022/12/06 11:02:59;;;;;;;;;;;;;;;5.66;100.00;101990.78;5052989;28;19916;-60
2022/12/06 11:05:33;;;;;;;;;;;;;;;5.68;100.00;101992.53;5052983;28;20378;-60
2022/12/06 11:08:03;;;;;;;;;;;;;;;5.86;100.00;101985.69;5052739;28;19916;-60
2022/12/06 11:10:29;;;;;;;;;;;;;;;6.11;100.00;101988.41;5053229;28;20012;-61
2022/12/06 11:13:01;;;;;;;;;;;;;;;6.41;100.00;101977.19;5049718;28;19916;-60
2022/12/06 11:15:27;;;;;;;;;;;;;;;6.75;100.00;101986.84;5052633;28;19912;-60
2022/12/06 11:17:54;;;;;;;;;;;;;;;7.05;100.00;101978.16;5039988;28;19920;-60
2022/12/06 11:20:26;;;;;;;;;;;;;;;7.28;100.00;101975.50;5032714;28;20398;-61
2022/12/06 11:22:52;;;;;;;;;;;;;;;7.45;100.00;101976.38;5049229;28;19958;-61
2022/12/06 11:25:24;;;;;;;;;;;;;;;7.41;100.00;101985.13;5055115;28;19916;-61
2022/12/06 11:27:54;;;;;;;;;;;;;;;7.27;100.00;101981.63;5066843;28;19963;-60
2022/12/06 11:30:20;;;;;;;;;;;;;;;7.18;100.00;101989.50;5052145;28;19924;-60
2022/12/06 11:32:46;;;;;;;;;;;;;;;7.09;100.00;101987.72;5070570;28;19924;-60
2022/12/06 11:35:12;;;;;;;;;;;;;;;7.00;100.00;101982.53;5051320;28;20188;-60
2022/12/06 11:37:37;;;;;;;;;;;;;;;6.95;100.00;101970.28;5052044;28;19925;-60
2022/12/06 11:40:22;;;;;;;;;;;;;;;6.94;100.00;101968.56;5052310;28;20450;-60
2022/12/06 11:42:48;;;;;;;;;;;;;;;6.90;100.00;101974.66;5059086;28;19992;-60
2022/12/06 11:45:14;;;;;;;;;;;;;;;6.88;100.00;101981.63;5058502;28;20015;-60
2022/12/06 11:47:39;;;;;;;;;;;;;;;6.89;100.00;101970.31;5053941;28;19913;-60
2022/12/06 11:50:06;;;;;;;;;;;;;;;7.04;100.00;101971.16;5054002;28;19916;-60
2022/12/06 11:52:35;;;;;;;;;;;;;;;7.32;100.00;101966.78;5072521;28;20379;-60
2022/12/06 11:55:12;;;;;;;;;;;;;;;7.55;100.00;101969.38;5055967;28;20009;-61
2022/12/06 11:57:38;;;;;;;;;;;;;;;7.67;100.00;101967.59;5055818;28;19923;-61
2022/12/06 12:00:17;;;;;;;;;;;;;;;7.84;100.00;101967.53;5055937;28;19920;-60
2022/12/06 12:02:43;;;;;;;;;;;;;;;8.05;100.00;101977.09;5056022;28;19936;-60
2022/12/06 12:05:18;;;;;;;;;;;;;;;8.29;100.00;101967.38;5074090;28;21218;-60
2022/12/06 12:07:44;;;;;;;;;;;;;;;8.39;100.00;101971.69;5073666;28;19912;-60
2022/12/06 12:10:37;;;;;;;;;;;;;;;8.54;100.00;101964.63;5055496;28;19916;-60
2022/12/06 12:15:56;;;;;;;;;;;;;;;8.49;100.00;101968.13;5074516;28;19970;-60
2022/12/06 12:18:22;;;;;;;;;;;;;;;8.39;100.00;101969.06;5074257;28;19951;-60
2022/12/06 12:20:47;;;;;;;;;;;;;;;8.36;100.00;101970.84;5073706;28;19917;-60
2022/12/06 12:23:13;;;;;;;;;;;;;;;8.23;100.00;101963.91;5037952;28;19965;-60
2022/12/06 12:25:41;;;;;;;;;;;;;;;8.14;100.00;101962.19;5054997;28;19916;-61
2022/12/06 12:28:29;;;;;;;;;;;;;;;8.03;100.00;101948.22;5054815;28;19916;-61
2022/12/06 12:30:55;;;;;;;;;;;;;;;7.86;100.00;101948.31;5071965;28;19924;-61
2022/12/06 12:33:21;;;;;;;;;;;;;;;7.83;100.00;101937.84;5072326;28;19916;-61
2022/12/06 12:35:54;;;;;;;;;;;;;;;7.82;100.00;101930.00;5054611;28;19916;-60
2022/12/06 12:38:26;;;;;;;;;;;;;;;7.85;100.00;101927.38;5071723;28;19917;-61
2022/12/06 12:40:55;;;;;;;;;;;;;;;8.01;100.00;101925.53;5054198;28;19955;-60
2022/12/06 12:43:22;;;;;;;;;;;;;;;8.14;100.00;101917.59;5072279;28;19913;-60
2022/12/06 12:46:04;;;;;;;;;;;;;;;8.26;100.00;101922.75;5072362;28;19916;-61
2022/12/06 12:48:29;;;;;;;;;;;;;;;8.42;100.00;101921.84;5047708;28;20052;-61
2022/12/06 12:50:55;;;;;;;;;;;;;;;8.34;100.00;101928.91;5072127;28;19916;-61
2022/12/06 12:53:32;;;;;;;;;;;;;;;8.16;100.00;101928.06;5053938;28;19912;-61
2022/12/06 12:56:07;;;;;;;;;;;;;;;8.00;100.00;101919.41;5053845;28;20383;-61
2022/12/06 12:58:32;;;;;;;;;;;;;;;7.94;100.00;101922.94;5054399;28;19962;-61
2022/12/06 13:00:59;;;;;;;;;;;;;;;7.86;100.00;101916.84;5054196;28;19928;-61
2022/12/06 13:03:25;;;;;;;;;;;;;;;7.94;100.00;101904.56;5054583;28;19916;-61
2022/12/06 13:05:50;;;;;;;;;;;;;;;8.09;100.00;101898.38;5072152;28;20428;-61
2022/12/06 13:08:17;;;;;;;;;;;;;;;8.07;100.00;101910.63;5071859;28;20019;-61